Time;durP1;ratioP1;P1;durP2;ratioP2;P2;SDS_P1;SDS_P2;PMS_P1;PMS_P2;Temp;Humidity;BMP_temperature;BMP_pressure;BME280_temperature;BME280_humidity;BME280_pressure;Samples;Min_cycle;Max_cycle;Signal;HPM_P1;HPM_P2
2023/12/23 00:01:34;;;;;;;19.10;11.50;;;;;;;4.51;82.44;96630.52;79165;1301;3012746;-72
2023/12/23 00:04:04;;;;;;;17.60;11.10;;;;;;;4.46;82.51;96634.70;78062;1301;3048464;-75
2023/12/23 00:06:31;;;;;;;16.60;9.80;;;;;;;4.22;82.89;96638.70;79249;1300;3013814;-74
2023/12/23 00:08:58;;;;;;;15.50;10.10;;;;;;;4.03;83.22;96628.24;79372;1303;3011920;-74
2023/12/23 00:11:26;;;;;;;13.20;7.80;;;;;;;3.99;83.71;96618.85;78092;1303;3026890;-74
2023/12/23 00:13:52;;;;;;;14.80;7.40;;;;;;;4.52;82.80;96620.15;79407;1300;3013648;-69
2023/12/23 00:16:19;;;;;;;16.10;7.70;;;;;;;5.09;80.48;96620.91;79258;1304;3011757;-68
2023/12/23 00:18:47;;;;;;;14.60;8.60;;;;;;;5.12;79.48;96614.06;78116;1301;3026629;-71
2023/12/23 00:21:14;;;;;;;15.10;7.80;;;;;;;4.98;79.14;96615.71;79526;1299;3018578;-71
2023/12/23 00:23:40;;;;;;;14.50;8.10;;;;;;;4.63;79.39;96615.78;79258;1301;3011724;-68
2023/12/23 00:26:08;;;;;;;15.20;8.40;;;;;;;4.38;80.44;96610.55;78100;1301;3026154;-70
2023/12/23 00:28:35;;;;;;;12.40;7.10;;;;;;;4.26;81.26;96613.98;79148;1299;3013259;-70
2023/12/23 00:31:02;;;;;;;18.60;7.50;;;;;;;4.24;81.29;96615.13;79031;1300;3011595;-68
2023/12/23 00:33:30;;;;;;;15.40;8.20;;;;;;;4.09;81.63;96615.66;78122;1303;3027555;-68
2023/12/23 00:35:57;;;;;;;12.30;8.20;;;;;;;3.90;82.75;96626.36;79371;1304;3013448;-69
2023/12/23 00:38:24;;;;;;;13.30;7.70;;;;;;;3.77;83.14;96624.18;79033;1301;3011604;-70
2023/12/23 00:40:52;;;;;;;19.10;7.30;;;;;;;3.81;82.98;96623.59;78117;1304;3051334;-69
2023/12/23 00:43:19;;;;;;;13.00;6.10;;;;;;;3.73;83.43;96624.02;79329;1300;3013435;-71
2023/12/23 00:45:45;;;;;;;11.10;6.00;;;;;;;4.18;83.09;96624.27;79304;1303;3011446;-68
2023/12/23 00:48:13;;;;;;;17.70;6.50;;;;;;;4.88;80.80;96620.20;77940;1299;3025605;-66
2023/12/23 00:50:40;;;;;;;11.80;6.40;;;;;;;4.80;79.40;96615.09;79249;1302;3011834;-70
2023/12/23 00:53:06;;;;;;;10.70;6.50;;;;;;;4.79;79.88;96609.84;79275;1303;3011597;-68
2023/12/23 00:55:35;;;;;;;11.50;6.10;;;;;;;4.65;79.67;96619.30;78021;1303;3028125;-69
2023/12/23 00:58:01;;;;;;;11.90;6.50;;;;;;;4.49;79.82;96619.95;79413;1300;3018466;-67
2023/12/23 01:00:28;;;;;;;13.60;6.40;;;;;;;4.31;80.24;96618.06;79251;1300;3011590;-69
2023/12/23 01:02:56;;;;;;;11.30;6.90;;;;;;;4.07;80.73;96612.48;78254;1300;3026309;-69
2023/12/23 01:05:22;;;;;;;11.40;6.50;;;;;;;3.91;81.18;96614.78;79280;1303;3013091;-70
2023/12/23 01:07:51;;;;;;;12.30;5.90;;;;;;;3.68;81.77;96613.48;79411;1304;3011741;-70
2023/12/23 01:10:24;;;;;;;13.10;5.90;;;;;;;3.53;82.78;96609.08;77881;1304;3051758;-70
2023/12/23 01:12:50;;;;;;;9.10;6.00;;;;;;;3.50;82.99;96610.07;79305;1301;3013153;-72
2023/12/23 01:15:18;;;;;;;17.80;5.70;;;;;;;3.55;82.68;96609.66;77776;1300;3050361;-72
2023/12/23 01:17:45;;;;;;;9.40;5.50;;;;;;;3.46;83.00;96614.80;79381;1301;3012895;-73
2023/12/23 01:20:12;;;;;;;9.60;5.60;;;;;;;3.98;83.11;96614.45;79452;1301;3013176;-71
2023/12/23 01:22:40;;;;;;;8.20;5.20;;;;;;;4.38;80.57;96619.23;78074;1303;3029077;-68
2023/12/23 01:25:06;;;;;;;8.40;5.10;;;;;;;4.35;80.21;96622.02;79111;1306;3013228;-68
2023/12/23 01:27:33;;;;;;;13.30;6.00;;;;;;;4.12;80.53;96616.10;79008;1307;3013097;-71
2023/12/23 01:30:03;;;;;;;10.20;6.00;;;;;;;4.14;80.75;96622.70;77880;1305;3051560;-70
2023/12/23 01:32:30;;;;;;;15.00;7.00;;;;;;;3.84;81.21;96614.19;79136;1301;3013135;-75
2023/12/23 01:34:56;;;;;;;16.60;8.90;;;;;;;3.67;82.04;96617.86;79131;1301;3013093;-69
2023/12/23 01:37:24;;;;;;;22.00;10.70;;;;;;;3.61;82.37;96624.63;78017;1301;3049798;-71
2023/12/23 01:39:51;;;;;;;26.50;11.70;;;;;;;3.32;83.76;96624.94;79261;1303;3013154;-72
2023/12/23 01:42:18;;;;;;;23.30;11.50;;;;;;;3.20;84.82;96624.98;79288;1300;3011612;-72
2023/12/23 01:44:46;;;;;;;25.00;12.00;;;;;;;3.28;84.53;96627.46;77868;1306;3026148;-71
2023/12/23 01:47:13;;;;;;;19.30;8.80;;;;;;;3.27;84.82;96626.52;79252;1301;3013522;-70
2023/12/23 01:49:40;;;;;;;20.30;9.30;;;;;;;3.82;83.74;96627.32;79075;1301;3011862;-73
2023/12/23 01:52:08;;;;;;;21.90;9.70;;;;;;;4.34;81.57;96631.45;77833;1301;3049242;-73
2023/12/23 01:54:35;;;;;;;26.00;10.80;;;;;;;4.32;80.77;96643.45;79048;1306;3013498;-68
2023/12/23 01:57:01;;;;;;;23.00;13.10;;;;;;;4.11;81.48;96641.31;79072;1301;3011675;-68
2023/12/23 01:59:30;;;;;;;26.70;13.00;;;;;;;3.97;81.81;96638.25;77768;1307;3028579;-70
2023/12/23 02:01:58;;;;;;;21.30;12.90;;;;;;;3.87;82.41;96633.14;79198;1303;3013147;-69
2023/12/23 02:04:25;;;;;;;26.40;14.80;;;;;;;3.87;82.21;96632.59;78985;1301;3011735;-69
2023/12/23 02:06:52;;;;;;;29.30;15.40;;;;;;;3.88;81.47;96637.70;77981;1303;3049924;-72
2023/12/23 02:09:19;;;;;;;31.80;15.30;;;;;;;3.71;81.90;96635.61;79222;1300;3013754;-71
2023/12/23 02:11:52;;;;;;;28.50;15.00;;;;;;;3.54;82.56;96640.36;79257;1301;3011621;-70
2023/12/23 02:14:31;;;;;;;27.70;14.10;;;;;;;3.35;83.78;96642.30;77976;1303;3051241;-69
2023/12/23 02:16:59;;;;;;;25.90;11.20;;;;;;;3.43;83.58;96648.27;77796;1306;3055382;-71
2023/12/23 02:19:26;;;;;;;24.70;11.30;;;;;;;3.81;82.71;96650.60;79141;1301;3011672;-71
2023/12/23 02:21:53;;;;;;;21.40;9.70;;;;;;;3.99;81.85;96647.30;79167;1301;3011683;-70
2023/12/23 02:24:21;;;;;;;19.80;9.30;;;;;;;4.24;81.53;96642.16;77942;1304;3025967;-72
2023/12/23 02:26:50;;;;;;;22.70;11.30;;;;;;;4.07;81.43;96641.75;79225;1303;3014844;-72
2023/12/23 02:29:19;;;;;;;23.20;11.60;;;;;;;3.90;81.83;96647.58;78689;1300;3011531;-73
2023/12/23 02:31:46;;;;;;;24.80;12.90;;;;;;;3.62;82.55;96643.70;79022;1301;3019370;-69
2023/12/23 02:34:12;;;;;;;24.70;13.70;;;;;;;3.38;83.66;96646.92;79252;1301;3011726;-73
2023/12/23 02:36:40;;;;;;;27.10;16.30;;;;;;;3.08;84.83;96646.80;77881;1306;3026435;-75
2023/12/23 02:39:07;;;;;;;27.70;15.40;;;;;;;2.83;86.04;96644.31;79230;1305;3013055;-69
2023/12/23 02:41:34;;;;;;;33.10;15.50;;;;;;;2.89;86.05;96643.84;79243;1306;3013106;-72
2023/12/23 02:44:02;;;;;;;16.70;9.70;;;;;;;2.77;86.73;96645.62;77992;1301;3026253;-72
2023/12/23 02:46:29;;;;;;;18.10;10.00;;;;;;;3.16;86.22;96635.48;79294;1301;3013285;-68
2023/12/23 02:48:59;;;;;;;20.90;10.80;;;;;;;4.02;84.11;96639.79;79249;1300;3011636;-69
2023/12/23 02:51:27;;;;;;;18.40;10.00;;;;;;;4.09;81.80;96645.23;79990;1300;3053081;-70
2023/12/23 02:53:55;;;;;;;19.00;9.60;;;;;;;3.80;81.68;96647.83;81628;1306;3012587;-72
2023/12/23 02:56:22;;;;;;;20.50;10.90;;;;;;;3.62;82.28;96644.42;81716;1301;3011622;-66
2023/12/23 02:58:49;;;;;;;21.40;11.30;;;;;;;3.46;82.89;96649.60;80486;1300;3067900;-69
2023/12/23 03:01:20;;;;;;;25.50;12.10;;;;;;;3.30;83.00;96657.96;81742;1300;3012678;-73
2023/12/23 03:03:48;;;;;;;19.60;11.60;;;;;;;3.17;83.86;96664.96;80669;1301;3011925;-71
2023/12/23 03:06:15;;;;;;;24.40;12.60;;;;;;;3.12;84.21;96666.36;79341;1300;3018443;-72
2023/12/23 03:08:42;;;;;;;23.60;14.50;;;;;;;3.14;83.34;96663.98;79478;1299;3011688;-72
2023/12/23 03:11:10;;;;;;;23.30;13.10;;;;;;;2.85;84.61;96665.39;78049;1303;3026490;-69
2023/12/23 03:13:36;;;;;;;14.90;7.80;;;;;;;2.61;86.03;96668.17;79312;1304;3013733;-68
2023/12/23 03:16:14;;;;;;;23.50;10.60;;;;;;;3.20;85.45;96656.96;79345;1301;3013229;-71
2023/12/23 03:18:43;;;;;;;20.80;11.20;;;;;;;3.83;82.91;96654.75;78039;1300;3056017;-68
2023/12/23 03:21:09;;;;;;;21.40;12.10;;;;;;;3.58;82.07;96646.77;79330;1301;3012905;-68
2023/12/23 03:23:36;;;;;;;23.70;11.90;;;;;;;3.51;82.25;96636.64;79352;1303;3012971;-68
2023/12/23 03:26:07;;;;;;;22.10;12.30;;;;;;;3.34;82.61;96647.42;78064;1303;3052433;-67
2023/12/23 03:28:34;;;;;;;18.50;12.00;;;;;;;3.19;82.62;96654.92;79473;1303;3013774;-70
2023/12/23 03:31:01;;;;;;;25.40;11.90;;;;;;;2.94;83.49;96662.34;79416;1299;3011760;-70
2023/12/23 03:33:29;;;;;;;22.70;11.80;;;;;;;2.70;84.58;96671.70;78178;1299;3056756;-70
2023/12/23 03:35:58;;;;;;;24.80;12.10;;;;;;;2.54;85.22;96669.26;79208;1304;3014059;-70
2023/12/23 03:38:27;;;;;;;25.90;13.20;;;;;;;2.39;85.97;96668.23;78745;1300;3011555;-65
2023/12/23 03:40:54;;;;;;;17.00;9.00;;;;;;;2.31;86.70;96673.84;79322;1305;3013136;-66
2023/12/23 03:43:21;;;;;;;22.50;11.20;;;;;;;2.73;86.22;96677.85;79036;1306;3012184;-72
2023/12/23 03:45:48;;;;;;;24.90;11.50;;;;;;;3.41;83.72;96674.06;77985;1301;3025862;-68
2023/12/23 03:48:15;;;;;;;20.50;10.50;;;;;;;3.49;82.02;96668.11;79211;1307;3012951;-69
2023/12/23 03:50:42;;;;;;;23.50;11.30;;;;;;;3.33;81.70;96672.21;79161;1301;3011517;-71
2023/12/23 03:53:10;;;;;;;24.30;11.30;;;;;;;3.39;81.33;96674.18;77989;1301;3027889;-71
2023/12/23 03:55:39;;;;;;;31.70;12.10;;;;;;;3.09;81.67;96671.95;79190;1306;3019735;-66
2023/12/23 03:58:05;;;;;;;29.80;12.90;;;;;;;2.71;82.78;96678.01;79155;1304;3012981;-68
2023/12/23 04:00:33;;;;;;;41.70;15.80;;;;;;;2.51;83.96;96677.42;78115;1301;3069887;-71
2023/12/23 04:03:00;;;;;;;37.90;13.00;;;;;;;2.38;84.36;96673.80;79339;1301;3013080;-72
2023/12/23 04:05:27;;;;;;;25.40;10.30;;;;;;;2.33;84.68;96673.85;79129;1306;3013050;-72
2023/12/23 04:07:55;;;;;;;18.00;6.40;;;;;;;2.26;84.95;96673.51;78166;1301;3025658;-69
2023/12/23 04:10:25;;;;;;;29.30;9.30;;;;;;;2.80;84.10;96679.08;79156;1303;3013037;-70
2023/12/23 04:12:53;;;;;;;29.50;11.10;;;;;;;3.12;81.86;96669.83;78009;1314;3051957;-69
2023/12/23 04:15:19;;;;;;;31.60;10.80;;;;;;;3.16;81.13;96673.30;79022;1307;3013788;-69
2023/12/23 04:17:46;;;;;;;35.50;11.90;;;;;;;3.21;80.94;96676.09;79065;1306;3013220;-72
2023/12/23 04:20:14;;;;;;;35.80;13.70;;;;;;;3.01;80.84;96687.44;77894;1306;3027616;-70
2023/12/23 04:22:44;;;;;;;29.80;14.30;;;;;;;2.83;81.21;96688.71;79097;1306;3013010;-69
2023/12/23 04:25:14;;;;;;;34.50;14.60;;;;;;;2.73;81.82;96684.48;78558;1311;3012948;-70
2023/12/23 04:27:41;;;;;;;46.00;18.70;;;;;;;2.51;82.01;96691.58;79295;1307;3013137;-68
2023/12/23 04:30:08;;;;;;;48.40;22.20;;;;;;;2.13;83.60;96699.27;79154;1307;3011747;-70
2023/12/23 04:32:36;;;;;;;45.90;20.40;;;;;;;2.08;83.88;96699.62;78061;1301;3051732;-69
2023/12/23 04:35:03;;;;;;;37.90;18.90;;;;;;;2.01;83.45;96698.90;79305;1304;3013248;-68
2023/12/23 04:37:30;;;;;;;35.90;15.10;;;;;;;1.86;84.32;96696.48;79248;1304;3011571;-66
2023/12/23 04:39:58;;;;;;;35.60;14.90;;;;;;;2.41;83.59;96700.71;77952;1306;3025054;-69
2023/12/23 04:42:25;;;;;;;31.60;14.80;;;;;;;2.79;81.24;96703.02;79168;1306;3013757;-67
2023/12/23 04:44:52;;;;;;;33.10;14.20;;;;;;;3.02;80.02;96697.52;79190;1303;3011848;-68
2023/12/23 04:47:20;;;;;;;32.90;14.70;;;;;;;2.97;79.39;96699.15;78033;1301;3025642;-67
2023/12/23 04:49:46;;;;;;;34.60;15.10;;;;;;;2.75;79.83;96700.37;79226;1303;3019153;-68
2023/12/23 04:52:13;;;;;;;30.10;15.50;;;;;;;2.44;80.70;96698.27;79153;1301;3011679;-67
2023/12/23 04:54:41;;;;;;;31.00;13.60;;;;;;;2.38;81.01;96694.40;78055;1303;3026028;-67
2023/12/23 04:57:08;;;;;;;25.50;12.70;;;;;;;2.19;81.45;96698.34;79287;1303;3013688;-69
2023/12/23 04:59:34;;;;;;;32.00;14.20;;;;;;;2.09;82.26;96697.50;79041;1306;3011763;-69
2023/12/23 05:02:03;;;;;;;27.50;13.10;;;;;;;2.05;82.51;96692.20;77928;1303;3026098;-69
2023/12/23 05:04:30;;;;;;;23.70;12.90;;;;;;;1.98;82.39;96687.16;79066;1301;3011406;-68
2023/12/23 05:06:57;;;;;;;32.50;14.20;;;;;;;1.94;81.89;96688.99;79059;1299;3011501;-69
2023/12/23 05:09:27;;;;;;;31.80;15.60;;;;;;;1.68;82.45;96690.95;78002;1303;3049389;-70
2023/12/23 05:11:53;;;;;;;40.60;17.60;;;;;;;1.60;83.12;96693.60;79513;1303;3011703;-70
2023/12/23 05:14:20;;;;;;;24.10;11.00;;;;;;;1.61;83.63;96689.06;79380;1303;3011271;-73
2023/12/23 05:16:48;;;;;;;26.60;10.30;;;;;;;2.14;82.74;96688.31;77981;1303;3025925;-70
2023/12/23 05:19:15;;;;;;;22.60;10.30;;;;;;;2.81;80.56;96691.81;79343;1303;3013295;-76
2023/12/23 05:21:46;;;;;;;21.60;10.70;;;;;;;2.85;79.07;96692.20;79104;1304;3011598;-69
2023/12/23 05:24:14;;;;;;;22.70;10.40;;;;;;;2.66;79.08;96688.93;78185;1303;3050112;-72
2023/12/23 05:26:40;;;;;;;24.80;12.70;;;;;;;2.54;79.26;96693.92;79440;1302;3011580;-73
2023/12/23 05:29:07;;;;;;;28.10;13.50;;;;;;;2.37;79.59;96695.84;79360;1298;3011469;-70
2023/12/23 05:31:35;;;;;;;34.30;14.10;;;;;;;2.28;79.69;96702.35;78107;1301;3026732;-70
2023/12/23 05:34:02;;;;;;;30.30;14.30;;;;;;;1.95;80.13;96709.52;79405;1303;3013330;-71
2023/12/23 05:36:29;;;;;;;35.70;14.70;;;;;;;1.97;80.47;96704.86;79298;1305;3011945;-67
2023/12/23 05:38:57;;;;;;;33.00;17.10;;;;;;;2.00;80.67;96702.63;78258;1301;3025949;-67
2023/12/23 05:41:23;;;;;;;29.40;13.20;;;;;;;1.84;81.47;96704.35;79410;1304;3012914;-74
2023/12/23 05:43:50;;;;;;;33.90;14.50;;;;;;;1.83;81.69;96708.97;79430;1302;3013007;-73
2023/12/23 05:46:18;;;;;;;26.10;12.40;;;;;;;1.70;82.45;96714.14;78138;1303;3025412;-76
2023/12/23 05:48:45;;;;;;;14.80;7.80;;;;;;;1.64;83.40;96710.95;79322;1302;3019347;-74
2023/12/23 05:51:12;;;;;;;14.50;6.90;;;;;;;2.13;83.43;96709.14;79538;1298;3013262;-75
2023/12/23 05:53:40;;;;;;;16.70;7.20;;;;;;;2.59;82.03;96709.13;78280;1303;3049876;-73
2023/12/23 05:56:07;;;;;;;17.50;8.20;;;;;;;2.67;81.94;96719.44;79467;1302;3013296;-73
2023/12/23 05:58:34;;;;;;;18.70;9.30;;;;;;;2.70;81.19;96717.16;79445;1302;3011582;-76
2023/12/23 06:01:04;;;;;;;24.20;8.70;;;;;;;2.47;81.34;96716.23;78254;1302;3050598;-72
2023/12/23 06:03:31;;;;;;;17.50;9.50;;;;;;;2.20;82.00;96715.52;79410;1303;3011871;-71
2023/12/23 06:05:58;;;;;;;18.10;9.10;;;;;;;1.91;83.03;96713.20;79401;1303;3012041;-71
2023/12/23 06:08:26;;;;;;;14.40;7.90;;;;;;;1.78;83.67;96714.14;79322;1298;3048967;-69
2023/12/23 06:10:53;;;;;;;14.70;7.70;;;;;;;1.79;83.40;96715.65;81782;1303;3012783;-74
2023/12/23 06:13:20;;;;;;;15.40;7.80;;;;;;;1.69;83.70;96714.02;81740;1303;3011111;-74
2023/12/23 06:15:47;;;;;;;9.30;4.60;;;;;;;1.65;84.22;96710.71;80480;1301;3051567;-67
2023/12/23 06:18:15;;;;;;;10.60;6.20;;;;;;;2.16;83.73;96707.36;81793;1299;3013359;-73
2023/12/23 06:20:41;;;;;;;11.90;5.90;;;;;;;2.84;81.18;96711.85;81734;1299;3011484;-74
2023/12/23 06:23:09;;;;;;;15.20;6.60;;;;;;;2.93;80.12;96714.66;79911;1298;3026614;-73
2023/12/23 06:25:36;;;;;;;12.50;7.00;;;;;;;2.60;79.51;96716.13;79593;1303;3015148;-73
2023/12/23 06:28:03;;;;;;;10.60;6.30;;;;;;;2.58;79.70;96716.11;79602;1313;3011910;-76
2023/12/23 06:30:31;;;;;;;12.70;6.40;;;;;;;2.42;79.46;96718.66;78232;1300;3026467;-68
2023/12/23 06:32:58;;;;;;;11.60;5.40;;;;;;;2.16;80.19;96721.33;79538;1299;3013682;-74
2023/12/23 06:35:24;;;;;;;13.00;6.60;;;;;;;1.98;81.02;96728.45;79419;1299;3011501;-73
2023/12/23 06:37:52;;;;;;;20.50;7.80;;;;;;;1.84;81.70;96730.13;78193;1303;3026402;-71
2023/12/23 06:40:19;;;;;;;16.70;7.40;;;;;;;1.74;82.15;96724.55;79383;1313;3011816;-70
2023/12/23 06:42:45;;;;;;;17.60;7.40;;;;;;;1.67;82.36;96726.59;79483;1303;3011588;-72
2023/12/23 06:45:14;;;;;;;12.40;5.80;;;;;;;1.61;83.08;96731.33;78195;1303;3026474;-73
2023/12/23 06:47:41;;;;;;;13.30;6.00;;;;;;;2.24;82.82;96733.23;79562;1299;3013329;-70
2023/12/23 06:50:08;;;;;;;17.80;7.20;;;;;;;2.56;81.27;96726.27;79434;1299;3011626;-72
2023/12/23 06:52:36;;;;;;;16.80;7.80;;;;;;;2.85;79.91;96726.80;78200;1299;3048917;-73
2023/12/23 06:55:03;;;;;;;21.80;8.20;;;;;;;2.68;79.23;96726.60;79388;1302;3013528;-69
2023/12/23 06:57:30;;;;;;;20.60;8.70;;;;;;;2.49;79.14;96728.14;79361;1303;3011669;-74
2023/12/23 06:59:59;;;;;;;17.60;9.40;;;;;;;2.43;78.89;96725.33;78062;1303;3026024;-74
2023/12/23 07:02:26;;;;;;;19.20;9.40;;;;;;;2.31;78.41;96730.16;79531;1303;3013679;-73
2023/12/23 07:04:53;;;;;;;20.10;9.40;;;;;;;2.28;78.88;96734.85;79347;1301;3011597;-70
2023/12/23 07:07:21;;;;;;;22.90;9.10;;;;;;;2.32;78.59;96736.27;78281;1301;3049303;-74
2023/12/23 07:09:47;;;;;;;17.30;8.70;;;;;;;2.29;77.67;96737.34;79434;1305;3014330;-72
2023/12/23 07:12:14;;;;;;;17.90;9.10;;;;;;;2.27;77.41;96739.94;79146;1305;3011654;-72
2023/12/23 07:14:42;;;;;;;16.50;9.10;;;;;;;2.18;78.21;96743.81;78169;1304;3026290;-71
2023/12/23 07:17:09;;;;;;;19.50;9.90;;;;;;;2.17;78.26;96752.38;79400;1303;3020984;-71
2023/12/23 07:19:35;;;;;;;15.30;7.50;;;;;;;2.12;78.67;96752.36;79369;1301;3011798;-69
2023/12/23 07:22:03;;;;;;;14.60;6.30;;;;;;;2.17;78.17;96753.59;78475;1302;3025974;-71
2023/12/23 07:24:30;;;;;;;14.90;6.90;;;;;;;2.01;79.30;96759.02;79481;1304;3011486;-73
2023/12/23 07:26:57;;;;;;;7.50;4.90;;;;;;;2.01;80.17;96757.77;79384;1304;3011657;-69
2023/12/23 07:29:25;;;;;;;13.60;5.70;;;;;;;2.60;79.33;96755.55;78195;1303;3027485;-73
2023/12/23 07:31:51;;;;;;;14.10;6.10;;;;;;;2.95;77.64;96766.31;79582;1300;3018545;-71
2023/12/23 07:34:18;;;;;;;16.40;6.30;;;;;;;2.55;78.19;96768.36;79429;1298;3011869;-71
2023/12/23 07:36:46;;;;;;;14.00;7.10;;;;;;;2.47;78.51;96770.95;78138;1301;3027068;-70
2023/12/23 07:39:14;;;;;;;13.80;7.00;;;;;;;2.32;78.98;96769.81;79447;1304;3018264;-70
2023/12/23 07:41:40;;;;;;;12.30;6.60;;;;;;;2.17;79.47;96765.33;79328;1301;3011792;-72
2023/12/23 07:44:08;;;;;;;16.30;5.60;;;;;;;2.10;79.74;96759.77;78323;1299;3050374;-74
2023/12/23 07:46:35;;;;;;;13.90;6.30;;;;;;;1.85;80.59;96761.48;79377;1301;3013554;-73
2023/12/23 07:49:02;;;;;;;14.80;6.80;;;;;;;1.78;81.42;96770.75;79510;1301;3011611;-70
2023/12/23 07:51:30;;;;;;;15.20;8.00;;;;;;;1.73;81.83;96772.95;78352;1304;3025907;-70
2023/12/23 07:53:57;;;;;;;14.50;6.70;;;;;;;1.73;82.68;96774.84;79355;1304;3018574;-71
2023/12/23 07:56:25;;;;;;;15.90;6.90;;;;;;;2.03;81.23;96774.19;79514;1303;3011897;-69
2023/12/23 07:58:53;;;;;;;14.90;6.20;;;;;;;2.06;81.04;96775.91;78085;1299;3051599;-74
2023/12/23 08:01:21;;;;;;;12.60;6.00;;;;;;;2.08;80.26;96779.05;79590;1303;3013351;-71
2023/12/23 08:03:48;;;;;;;11.00;5.10;;;;;;;2.16;80.17;96781.97;79346;1304;3011945;-71
2023/12/23 08:06:16;;;;;;;11.60;6.00;;;;;;;2.75;78.66;96783.00;78229;1302;3049034;-71
2023/12/23 08:08:43;;;;;;;13.60;6.10;;;;;;;3.37;77.11;96774.04;79385;1304;3013784;-72
2023/12/23 08:11:10;;;;;;;16.30;5.90;;;;;;;3.37;75.71;96780.80;79407;1304;3011410;-73
2023/12/23 08:13:40;;;;;;;10.50;4.70;;;;;;;3.17;75.15;96782.08;78256;1298;3049768;-69
2023/12/23 08:16:07;;;;;;;11.60;5.30;;;;;;;2.91;75.29;96775.65;79540;1303;3013324;-69
2023/12/23 08:18:36;;;;;;;12.40;5.70;;;;;;;3.00;75.46;96780.36;78959;1299;3011652;-72
2023/12/23 08:21:03;;;;;;;13.60;5.60;;;;;;;2.87;75.62;96768.82;79385;1300;3012910;-72
2023/12/23 08:23:30;;;;;;;11.90;5.30;;;;;;;2.86;76.38;96764.59;79470;1304;3011713;-75
2023/12/23 08:25:58;;;;;;;16.30;4.90;;;;;;;2.54;76.32;96774.48;78276;1299;3025956;-72
2023/12/23 08:28:25;;;;;;;12.00;5.00;;;;;;;2.47;77.24;96767.73;79506;1299;3014301;-72
2023/12/23 08:30:52;;;;;;;14.40;4.90;;;;;;;2.41;77.29;96765.39;79314;1303;3013299;-72
2023/12/23 08:33:19;;;;;;;8.60;5.00;;;;;;;2.26;77.99;96768.48;78095;1299;3027215;-69
2023/12/23 08:35:46;;;;;;;8.50;3.50;;;;;;;2.43;77.30;96763.33;79316;1303;3018311;-74
2023/12/23 08:38:13;;;;;;;13.30;5.00;;;;;;;2.55;76.67;96758.83;79507;1301;3011499;-68
2023/12/23 08:40:41;;;;;;;12.60;5.00;;;;;;;2.49;76.64;96760.47;78309;1302;3026882;-74
2023/12/23 08:43:09;;;;;;;15.80;5.30;;;;;;;2.53;77.13;96758.65;79342;1299;3013504;-73
2023/12/23 08:45:36;;;;;;;12.80;4.60;;;;;;;2.57;76.99;96761.45;79523;1299;3011490;-71
2023/12/23 08:48:04;;;;;;;11.40;5.00;;;;;;;2.65;76.67;96768.14;78328;1300;3048789;-73
2023/12/23 08:50:31;;;;;;;11.30;4.80;;;;;;;2.54;76.84;96763.94;79472;1303;3012967;-74
2023/12/23 08:52:58;;;;;;;11.30;5.20;;;;;;;2.63;76.95;96763.96;79366;1303;3013227;-72
2023/12/23 08:55:26;;;;;;;8.90;4.50;;;;;;;2.55;76.90;96761.61;78040;1303;3027373;-70
2023/12/23 08:57:52;;;;;;;11.20;4.90;;;;;;;2.65;76.54;96762.63;79589;1303;3014688;-73
2023/12/23 09:00:19;;;;;;;12.10;5.10;;;;;;;2.74;76.40;96768.92;79391;1300;3011533;-70
2023/12/23 09:02:47;;;;;;;12.10;5.90;;;;;;;2.77;77.02;96761.06;78232;1301;3026542;-75
2023/12/23 09:05:14;;;;;;;11.60;5.60;;;;;;;2.96;76.84;96757.66;79449;1301;3013642;-64
2023/12/23 09:07:41;;;;;;;11.90;4.20;;;;;;;2.93;77.08;96758.56;79636;1303;3011228;-72
2023/12/23 09:10:08;;;;;;;11.60;5.00;;;;;;;3.48;76.53;96758.15;78151;1303;3026655;-74
2023/12/23 09:12:36;;;;;;;9.40;4.70;;;;;;;4.18;72.94;96750.04;79478;1299;3012852;-73
2023/12/23 09:15:03;;;;;;;14.30;5.80;;;;;;;4.47;71.38;96757.86;79650;1300;3011724;-68
2023/12/23 09:17:32;;;;;;;12.30;4.30;;;;;;;4.37;71.22;96757.41;78410;1299;3049115;-75
2023/12/23 09:19:59;;;;;;;11.70;4.80;;;;;;;4.26;70.46;96752.55;79437;1298;3013154;-72
2023/12/23 09:22:25;;;;;;;9.50;3.90;;;;;;;3.98;70.05;96757.13;79444;1301;3013104;-69
2023/12/23 09:24:53;;;;;;;8.90;4.50;;;;;;;3.79;70.68;96762.89;78155;1302;3026386;-69
2023/12/23 09:27:20;;;;;;;12.80;4.60;;;;;;;3.80;70.85;96763.32;79362;1298;3018500;-71
2023/12/23 09:29:46;;;;;;;14.60;5.30;;;;;;;3.51;72.32;96764.86;79503;1298;3011905;-69
2023/12/23 09:32:15;;;;;;;14.30;5.40;;;;;;;3.68;72.65;96758.75;78264;1301;3048435;-68
2023/12/23 09:34:42;;;;;;;25.10;6.90;;;;;;;3.63;73.19;96762.08;79403;1301;3013144;-67
2023/12/23 09:37:08;;;;;;;26.80;8.60;;;;;;;3.76;73.13;96766.77;79337;1303;3011736;-70
2023/12/23 09:39:36;;;;;;;25.10;6.90;;;;;;;3.73;72.74;96770.63;78191;1303;3026463;-71
2023/12/23 09:42:04;;;;;;;17.10;5.60;;;;;;;3.65;72.71;96769.88;79850;1298;3018341;-71
2023/12/23 09:44:30;;;;;;;12.60;4.80;;;;;;;3.55;72.35;96771.66;79634;1299;3011762;-77
2023/12/23 09:46:58;;;;;;;11.00;4.20;;;;;;;3.42;71.38;96776.43;78152;1300;3048682;-76
2023/12/23 09:49:25;;;;;;;6.50;3.60;;;;;;;3.41;71.52;96769.92;79129;1304;3018564;-73
2023/12/23 09:51:52;;;;;;;8.10;3.80;;;;;;;3.44;70.30;96761.07;79423;1301;3013176;-75
2023/12/23 09:54:21;;;;;;;7.10;3.00;;;;;;;3.61;70.12;96751.27;78047;1305;3026620;-76
2023/12/23 09:56:48;;;;;;;11.60;4.00;;;;;;;3.68;69.63;96758.88;79332;1300;3013097;-77
2023/12/23 09:59:15;;;;;;;7.40;3.10;;;;;;;3.73;69.40;96762.65;79441;1298;3011757;-76
2023/12/23 10:01:44;;;;;;;13.70;3.50;;;;;;;3.66;69.21;96752.09;78370;1299;3047828;-73
2023/12/23 10:04:11;;;;;;;9.50;3.50;;;;;;;3.70;69.42;96758.40;79183;1300;3011781;-69
2023/12/23 10:06:38;;;;;;;9.70;3.30;;;;;;;3.57;69.72;96759.54;79359;1301;3013828;-70
2023/12/23 10:09:08;;;;;;;10.70;4.10;;;;;;;3.58;69.58;96765.86;78383;1301;3051574;-70
2023/12/23 10:11:35;;;;;;;6.40;3.00;;;;;;;3.65;69.75;96769.32;79378;1300;3012615;-72
2023/12/23 10:14:02;;;;;;;9.00;2.90;;;;;;;3.58;69.81;96773.30;79543;1300;3011917;-71
2023/12/23 10:16:30;;;;;;;7.30;3.80;;;;;;;3.58;70.20;96770.58;78281;1300;3048766;-72
2023/12/23 10:18:56;;;;;;;9.90;3.80;;;;;;;3.50;70.92;96774.91;79493;1302;3012963;-71
2023/12/23 10:21:23;;;;;;;11.50;4.60;;;;;;;3.43;71.59;96768.76;79552;1302;3011913;-72
2023/12/23 10:23:52;;;;;;;15.90;4.70;;;;;;;3.40;72.26;96769.16;78629;1300;3026302;-68
2023/12/23 10:26:19;;;;;;;14.10;4.90;;;;;;;3.39;71.87;96774.19;79529;1301;3015840;-72
2023/12/23 10:28:46;;;;;;;12.90;4.00;;;;;;;3.29;72.18;96766.67;79410;1298;3013653;-72
2023/12/23 10:31:14;;;;;;;9.80;5.10;;;;;;;3.22;72.71;96769.73;78351;1299;3049583;-70
2023/12/23 10:33:44;;;;;;;11.80;4.50;;;;;;;3.19;73.82;96767.92;79162;1301;3019102;-70
2023/12/23 10:36:14;;;;;;;6.80;3.20;;;;;;;3.28;73.33;96763.07;78924;1297;3011696;-70
2023/12/23 10:38:42;;;;;;;9.40;3.50;;;;;;;3.29;73.23;96760.06;79487;1302;3011696;-69
2023/12/23 10:41:15;;;;;;;11.30;4.30;;;;;;;3.17;73.76;96764.40;79361;1302;3012148;-71
2023/12/23 10:43:43;;;;;;;10.70;3.50;;;;;;;3.29;73.38;96764.05;78260;1303;3052144;-73
2023/12/23 10:46:10;;;;;;;14.70;4.50;;;;;;;3.28;73.38;96760.64;79160;1298;3013110;-74
2023/12/23 10:48:37;;;;;;;10.90;4.20;;;;;;;3.38;73.51;96759.45;79256;1301;3012996;-71
2023/12/23 10:51:05;;;;;;;13.90;4.50;;;;;;;3.49;73.13;96756.53;78097;1316;3050449;-70
2023/12/23 10:53:33;;;;;;;9.90;4.30;;;;;;;3.54;73.03;96763.58;79328;1300;3013771;-74
2023/12/23 10:55:59;;;;;;;13.10;4.00;;;;;;;3.65;72.26;96759.79;79395;1304;3011971;-70
2023/12/23 10:58:27;;;;;;;10.30;4.60;;;;;;;3.30;71.92;96767.64;78349;1298;3051147;-71
2023/12/23 11:00:55;;;;;;;13.00;4.20;;;;;;;3.11;72.97;96767.94;79237;1303;3013524;-70
2023/12/23 11:03:22;;;;;;;8.80;3.80;;;;;;;3.27;73.36;96764.91;79357;1298;3011918;-70
2023/12/23 11:05:50;;;;;;;22.80;4.70;;;;;;;3.33;72.99;96755.48;78153;1301;3049103;-73
2023/12/23 11:08:19;;;;;;;21.20;5.10;;;;;;;3.56;72.78;96747.20;79229;1303;3013677;-71
2023/12/23 11:10:46;;;;;;;20.10;5.70;;;;;;;3.48;72.52;96751.00;79428;1301;3013276;-74
2023/12/23 11:13:15;;;;;;;13.70;3.90;;;;;;;3.65;72.34;96755.16;78145;1303;3052524;-71
2023/12/23 11:15:45;;;;;;;21.60;6.80;;;;;;;3.71;72.13;96751.59;79618;1300;3013852;-74